createdAt,value
2018-11-03T00:02:34.331Z,9.00
2018-11-03T00:05:12.339Z,9.73
2018-11-03T00:07:49.519Z,9.53
2018-11-03T00:10:24.776Z,10.87
2018-11-03T00:12:59.692Z,11.03
2018-11-03T00:15:37.419Z,11.23
2018-11-03T00:18:12.421Z,12.33
2018-11-03T00:20:50.301Z,11.27
2018-11-03T00:23:27.276Z,12.00
2018-11-03T00:26:10.684Z,10.70
2018-11-03T00:28:51.932Z,11.80
2018-11-03T00:31:29.775Z,11.50
2018-11-03T00:34:16.652Z,11.70
2018-11-03T00:36:55.375Z,11.90
2018-11-03T00:39:35.936Z,12.37
2018-11-03T00:42:16.640Z,11.53
2018-11-03T00:44:56.575Z,11.90
2018-11-03T00:47:33.016Z,12.00
2018-11-03T00:50:10.357Z,11.07
2018-11-03T00:52:47.425Z,11.70
2018-11-03T00:55:23.498Z,11.30
2018-11-03T00:57:58.868Z,10.90
2018-11-03T01:00:33.894Z,10.87
2018-11-03T01:03:10.283Z,11.43
2018-11-03T01:05:47.172Z,10.87
2018-11-03T01:08:22.697Z,10.93
2018-11-03T01:10:57.761Z,11.33
2018-11-03T01:13:32.696Z,11.73
2018-11-03T01:16:09.612Z,11.40
2018-11-03T01:18:45.570Z,10.70
2018-11-03T01:21:20.646Z,11.37
2018-11-03T01:23:55.691Z,10.87
2018-11-03T01:26:31.212Z,11.00
2018-11-03T01:29:06.510Z,12.03
2018-11-03T01:31:41.457Z,11.07
2018-11-03T01:34:17.034Z,12.03
2018-11-03T01:36:54.397Z,11.80
2018-11-03T01:39:29.926Z,11.27
2018-11-03T01:42:05.884Z,10.80
2018-11-03T01:44:40.718Z,10.83
2018-11-03T01:47:16.340Z,11.10
2018-11-03T01:49:52.238Z,12.30
2018-11-03T01:52:27.049Z,12.20
2018-11-03T01:55:02.116Z,11.37
2018-11-03T01:57:38.466Z,11.73
2018-11-03T02:00:13.719Z,11.27
2018-11-03T02:02:50.523Z,11.40
2018-11-03T02:05:25.454Z,12.20
2018-11-03T02:08:01.343Z,13.17
2018-11-03T02:10:36.228Z,12.73
2018-11-03T02:13:11.450Z,13.33
2018-11-03T02:15:46.294Z,13.33
2018-11-03T02:18:21.043Z,13.53
2018-11-03T02:20:59.169Z,11.93
2018-11-03T02:23:36.268Z,12.20
2018-11-03T02:26:11.294Z,11.57
2018-11-03T02:28:46.311Z,10.93
2018-11-03T02:31:21.723Z,12.17
2018-11-03T02:33:57.256Z,11.60
2018-11-03T02:36:33.328Z,11.60
2018-11-03T02:39:09.725Z,11.27
2018-11-03T02:41:44.880Z,11.10
2018-11-03T02:44:20.969Z,11.90
2018-11-03T02:47:00.373Z,11.10
2018-11-03T02:49:35.679Z,11.10
2018-11-03T02:52:10.701Z,11.00
2018-11-03T02:54:46.958Z,11.73
2018-11-03T02:57:22.364Z,12.37
2018-11-03T02:59:57.843Z,11.20
2018-11-03T03:02:33.296Z,12.87
2018-11-03T03:05:09.341Z,12.53
2018-11-03T03:07:44.220Z,12.47
2018-11-03T03:10:19.378Z,12.87
2018-11-03T03:12:55.726Z,12.73
2018-11-03T03:15:30.562Z,12.47
2018-11-03T03:18:07.422Z,12.17
2018-11-03T03:20:42.288Z,12.87
2018-11-03T03:23:17.284Z,12.40
2018-11-03T03:25:53.743Z,12.63
2018-11-03T03:28:28.530Z,12.13
2018-11-03T03:31:04.677Z,11.63
2018-11-03T03:33:39.773Z,12.47
2018-11-03T03:36:15.455Z,12.57
2018-11-03T03:38:52.117Z,12.20
2018-11-03T03:41:27.151Z,12.17
2018-11-03T03:44:02.701Z,12.23
2018-11-03T03:46:37.618Z,12.10
2018-11-03T03:49:12.788Z,12.63
2018-11-03T03:51:47.616Z,11.90
2018-11-03T03:54:25.107Z,12.70
2018-11-03T03:57:01.777Z,12.53
2018-11-03T03:59:37.066Z,13.47
2018-11-03T04:02:12.124Z,13.53
2018-11-03T04:04:47.929Z,13.37
2018-11-03T04:07:22.762Z,13.70
2018-11-03T04:09:57.681Z,14.57
2018-11-03T04:12:33.118Z,15.23
2018-11-03T04:15:09.689Z,14.13
2018-11-03T04:17:46.699Z,13.70
2018-11-03T04:20:21.038Z,13.90
2018-11-03T04:22:59.561Z,14.83
2018-11-03T04:25:36.199Z,14.63
2018-11-03T04:28:12.965Z,15.40
2018-11-03T04:30:48.579Z,15.97
2018-11-03T04:33:25.152Z,16.67
2018-11-03T04:36:00.174Z,16.77
2018-11-03T04:38:36.011Z,15.30
2018-11-03T04:41:11.576Z,15.53
2018-11-03T04:43:46.434Z,16.93
2018-11-03T04:46:21.660Z,16.43
2018-11-03T04:49:02.522Z,15.97
2018-11-03T04:51:37.744Z,16.87
2018-11-03T04:54:12.711Z,17.13
2018-11-03T04:56:47.603Z,17.00
2018-11-03T04:59:22.714Z,16.90
2018-11-03T05:01:57.483Z,16.27
2018-11-03T05:04:32.562Z,16.63
2018-11-03T05:07:07.466Z,15.83
2018-11-03T05:09:42.430Z,16.33
2018-11-03T05:12:17.521Z,16.77
2018-11-03T05:14:52.613Z,16.67
2018-11-03T05:17:27.531Z,16.37
2018-11-03T05:20:02.512Z,15.23
2018-11-03T05:22:38.235Z,14.63
2018-11-03T05:25:13.817Z,15.93
2018-11-03T05:27:49.879Z,16.40
2018-11-03T05:30:25.015Z,16.30
2018-11-03T05:33:00.535Z,15.93
2018-11-03T05:35:38.279Z,16.17
2018-11-03T05:38:16.712Z,15.93
2018-11-03T05:40:52.553Z,17.27
2018-11-03T05:43:27.777Z,16.60
2018-11-03T05:46:06.916Z,15.70
2018-11-03T05:48:42.457Z,16.33
2018-11-03T05:51:17.413Z,17.23
2018-11-03T05:53:52.897Z,16.80
2018-11-03T05:56:27.966Z,16.70
2018-11-03T05:59:03.260Z,16.40
2018-11-03T06:01:38.915Z,15.60
2018-11-03T06:04:16.996Z,16.33
2018-11-03T06:06:52.236Z,17.47
2018-11-03T06:09:27.560Z,18.23
2018-11-03T06:12:02.737Z,17.27
2018-11-03T06:14:38.327Z,16.60
2018-11-03T06:17:13.423Z,16.83
2018-11-03T06:19:48.610Z,16.10
2018-11-03T06:22:24.655Z,17.30
2018-11-03T06:24:59.483Z,16.53
2018-11-03T06:27:34.742Z,17.60
2018-11-03T06:30:11.659Z,17.33
2018-11-03T06:32:50.528Z,17.60
2018-11-03T06:35:25.640Z,16.20
2018-11-03T06:38:01.750Z,17.87
2018-11-03T06:40:38.654Z,17.83
2018-11-03T06:43:13.831Z,17.83
2018-11-03T06:45:49.748Z,18.07
2018-11-03T06:48:24.323Z,16.97
2018-11-03T06:50:59.053Z,17.90
2018-11-03T06:53:35.460Z,17.37
2018-11-03T06:56:10.727Z,16.93
2018-11-03T06:58:46.206Z,17.00
2018-11-03T07:01:21.036Z,17.60
2018-11-03T07:03:56.056Z,17.73
2018-11-03T07:06:31.196Z,17.83
2018-11-03T07:09:09.032Z,18.00
2018-11-03T07:11:44.289Z,17.63
2018-11-03T07:14:20.876Z,17.50
2018-11-03T07:16:56.900Z,17.33
2018-11-03T07:19:32.817Z,16.73
2018-11-03T07:22:10.766Z,16.57
2018-11-03T07:24:45.631Z,16.77
2018-11-03T07:27:20.471Z,16.47
2018-11-03T07:29:58.091Z,17.27
2018-11-03T07:32:35.144Z,16.67
2018-11-03T07:35:12.169Z,17.10
2018-11-03T07:37:46.963Z,16.80
2018-11-03T07:40:22.323Z,16.93
2018-11-03T07:42:57.393Z,16.47
2018-11-03T07:45:32.404Z,16.10
2018-11-03T07:48:07.518Z,18.27
2018-11-03T07:50:42.443Z,17.57
2018-11-03T07:53:17.496Z,17.73
2018-11-03T07:55:52.328Z,18.50
2018-11-03T07:58:27.015Z,18.03
2018-11-03T08:01:02.044Z,16.37
2018-11-03T08:03:38.367Z,17.93
2018-11-03T08:06:13.124Z,17.37
2018-11-03T08:08:47.678Z,16.70
2018-11-03T08:11:22.353Z,16.20
2018-11-03T08:13:58.312Z,16.87
2018-11-03T08:16:32.952Z,17.00
2018-11-03T08:19:07.676Z,15.17
2018-11-03T08:21:42.312Z,16.17
2018-11-03T08:24:16.873Z,15.97
2018-11-03T08:26:51.441Z,14.53
2018-11-03T08:29:25.930Z,14.40
2018-11-03T08:32:00.747Z,14.83
2018-11-03T08:34:35.665Z,14.90
2018-11-03T08:37:10.624Z,14.80
2018-11-03T08:39:45.275Z,15.20
2018-11-03T08:42:19.684Z,14.30
2018-11-03T08:44:54.524Z,14.27
2018-11-03T08:47:29.575Z,13.33
2018-11-03T08:50:04.984Z,14.13
2018-11-03T08:52:40.215Z,14.47
2018-11-03T08:55:46.106Z,13.50
2018-11-03T09:00:52.890Z,14.90
2018-11-03T09:03:27.513Z,13.10
2018-11-03T09:06:02.678Z,13.93
2018-11-03T09:08:37.624Z,14.23
2018-11-03T09:11:12.491Z,14.40
2018-11-03T09:13:47.270Z,13.70
2018-11-03T09:16:21.884Z,14.40
2018-11-03T09:18:56.815Z,13.83
2018-11-03T09:21:31.334Z,14.60
2018-11-03T09:24:06.278Z,14.03
2018-11-03T09:26:41.477Z,13.13
2018-11-03T09:29:16.319Z,12.37
2018-11-03T09:31:55.339Z,13.17
2018-11-03T09:34:29.994Z,12.73
2018-11-03T09:37:04.935Z,12.30
2018-11-03T09:39:39.802Z,13.60
2018-11-03T09:42:14.500Z,12.33
2018-11-03T09:44:49.315Z,11.27
2018-11-03T09:47:23.858Z,11.90
2018-11-03T09:49:58.849Z,11.93
2018-11-03T09:52:33.287Z,12.30
2018-11-03T09:55:10.932Z,11.70
2018-11-03T09:57:45.500Z,12.20
2018-11-03T10:00:21.032Z,12.30
2018-11-03T10:02:55.762Z,10.90
2018-11-03T10:05:30.862Z,11.83
2018-11-03T10:08:07.774Z,11.53
2018-11-03T10:10:42.517Z,11.27
2018-11-03T10:13:17.118Z,10.47
2018-11-03T10:15:52.039Z,11.10
2018-11-03T10:18:26.636Z,11.33
2018-11-03T10:21:01.240Z,10.53
2018-11-03T10:23:36.089Z,10.87
2018-11-03T10:26:10.904Z,10.30
2018-11-03T10:28:45.281Z,10.40
2018-11-03T10:31:19.728Z,10.27
2018-11-03T10:33:54.223Z,10.80
2018-11-03T10:36:28.471Z,10.47
2018-11-03T10:39:02.943Z,10.63
2018-11-03T10:41:37.517Z,10.43
2018-11-03T10:44:13.691Z,10.23
2018-11-03T10:46:48.301Z,10.40
2018-11-03T10:49:22.848Z,9.93
2018-11-03T10:51:57.319Z,11.13
2018-11-03T10:54:31.822Z,10.50
2018-11-03T10:57:06.820Z,10.67
2018-11-03T10:59:41.950Z,10.67
2018-11-03T11:02:33.993Z,10.63
2018-11-03T11:05:24.031Z,10.43
2018-11-03T11:08:09.824Z,10.27
2018-11-03T11:10:51.197Z,10.20
2018-11-03T11:13:27.703Z,10.03
2018-11-03T11:16:05.172Z,10.27
2018-11-03T11:21:39.041Z,10.57
2018-11-03T11:24:15.697Z,10.23
2018-11-03T11:27:01.167Z,10.40
2018-11-03T11:29:36.188Z,10.83
2018-11-03T11:32:12.226Z,10.53
2018-11-03T11:34:47.130Z,10.33
2018-11-03T11:37:21.741Z,10.10
2018-11-03T11:39:58.046Z,10.33
2018-11-03T11:42:34.006Z,9.73
2018-11-03T11:45:09.038Z,10.80
2018-11-03T11:47:43.877Z,10.03
2018-11-03T11:50:18.694Z,9.43
2018-11-03T11:52:53.254Z,9.63
2018-11-03T11:55:27.992Z,10.10
2018-11-03T11:58:04.159Z,10.37
2018-11-03T12:00:39.087Z,9.70
2018-11-03T12:03:13.759Z,10.07
2018-11-03T12:05:48.199Z,9.97
2018-11-03T12:08:23.333Z,10.63
2018-11-03T12:14:50.732Z,11.07
2018-11-03T12:26:28.879Z,11.13
2018-11-03T12:47:42.455Z,9.93
2018-11-03T12:50:20.526Z,9.40
2018-11-03T12:52:55.487Z,9.50
2018-11-03T12:55:30.846Z,9.03
2018-11-03T12:58:09.514Z,9.07
2018-11-03T13:00:45.091Z,8.63
2018-11-03T13:03:19.971Z,8.87
2018-11-03T13:05:55.857Z,9.37
2018-11-03T13:08:31.719Z,8.57
2018-11-03T13:11:06.455Z,8.97
2018-11-03T13:13:47.034Z,10.00
2018-11-03T13:16:21.583Z,8.47
2018-11-03T13:18:58.376Z,8.70
2018-11-03T13:21:32.894Z,8.40
2018-11-03T13:24:07.462Z,9.10
2018-11-03T13:26:43.993Z,8.87
2018-11-03T13:29:18.748Z,9.70
2018-11-03T13:31:53.188Z,9.47
2018-11-03T13:34:27.855Z,8.70
2018-11-03T13:37:04.666Z,8.53
2018-11-03T13:39:39.499Z,9.20
2018-11-03T13:42:15.443Z,12.23
2018-11-03T13:44:49.948Z,11.57
2018-11-03T13:47:24.709Z,8.63
2018-11-03T13:49:59.148Z,9.20
2018-11-03T13:52:33.999Z,8.40
2018-11-03T13:55:09.054Z,9.00
2018-11-03T13:57:44.865Z,9.73
2018-11-03T14:00:23.906Z,8.90
2018-11-03T14:02:58.404Z,8.77
2018-11-03T14:05:32.831Z,8.60
2018-11-03T14:08:07.859Z,8.73
2018-11-03T14:10:42.886Z,8.50
2018-11-03T14:13:18.270Z,8.97
2018-11-03T14:15:52.999Z,9.10
2018-11-03T14:18:27.498Z,9.03
2018-11-03T14:21:02.401Z,8.80
2018-11-03T14:23:37.438Z,8.63
2018-11-03T14:26:12.447Z,9.13
2018-11-03T14:28:47.113Z,8.47
2018-11-03T14:31:21.670Z,8.07
2018-11-03T14:33:59.372Z,8.67
2018-11-03T14:36:33.955Z,8.93
2018-11-03T14:39:09.470Z,8.53
2018-11-03T14:41:43.984Z,9.07
2018-11-03T14:44:18.544Z,8.37
2018-11-03T14:46:55.043Z,8.90
2018-11-03T14:49:35.746Z,8.17
2018-11-03T14:52:11.358Z,9.07
2018-11-03T14:54:49.591Z,8.80
2018-11-03T14:57:24.237Z,8.40
2018-11-03T14:59:58.735Z,8.87
2018-11-03T15:02:33.637Z,8.50
2018-11-03T15:05:09.128Z,8.40
2018-11-03T15:07:44.643Z,8.50
2018-11-03T15:10:20.534Z,8.03
2018-11-03T15:12:55.284Z,8.50
2018-11-03T15:15:31.398Z,8.83
2018-11-03T15:18:06.028Z,9.03
2018-11-03T15:20:45.785Z,9.70
2018-11-03T15:23:20.436Z,8.33
2018-11-03T15:25:54.969Z,7.73
2018-11-03T15:28:35.635Z,8.57
2018-11-03T15:31:10.429Z,8.77
2018-11-03T15:33:45.193Z,9.93
2018-11-03T15:36:19.908Z,9.43
2018-11-03T15:38:54.823Z,8.93
2018-11-03T15:41:29.371Z,9.13
2018-11-03T15:44:08.478Z,8.77
2018-11-03T15:46:43.701Z,10.03
2018-11-03T15:49:18.266Z,9.13
2018-11-03T15:51:53.025Z,9.13
2018-11-03T15:54:30.307Z,9.37
2018-11-03T15:57:06.346Z,8.60
2018-11-03T15:59:46.506Z,8.80
2018-11-03T16:02:22.613Z,9.10
2018-11-03T16:05:00.582Z,8.20
2018-11-03T16:07:48.003Z,8.87
2018-11-03T16:16:27.752Z,8.90
2018-11-03T16:19:02.842Z,9.50
2018-11-03T16:21:37.586Z,9.90
2018-11-03T16:24:12.455Z,9.87
2018-11-03T16:26:47.004Z,9.93
2018-11-03T16:29:21.824Z,10.33
2018-11-03T16:31:56.270Z,9.77
2018-11-03T16:34:30.774Z,10.40
2018-11-03T16:37:05.472Z,10.97
2018-11-03T16:39:40.097Z,10.23
2018-11-03T16:42:14.805Z,11.40
2018-11-03T16:44:49.486Z,10.37
2018-11-03T16:47:24.260Z,10.53
2018-11-03T16:50:03.211Z,11.07
2018-11-03T16:52:38.751Z,10.93
2018-11-03T16:55:14.477Z,10.73
2018-11-03T16:57:50.313Z,11.30
2018-11-03T17:00:24.909Z,10.90
2018-11-03T17:02:59.412Z,11.00
2018-11-03T17:05:34.166Z,11.50
2018-11-03T17:08:10.552Z,11.07
2018-11-03T17:10:45.416Z,12.10
2018-11-03T17:13:19.882Z,11.57
2018-11-03T17:15:54.548Z,12.00
2018-11-03T17:18:29.069Z,11.97
2018-11-03T17:21:03.656Z,12.40
2018-11-03T17:23:39.494Z,12.30
2018-11-03T17:26:14.237Z,11.37
2018-11-03T17:28:49.104Z,11.80
2018-11-03T17:31:28.637Z,11.97
2018-11-03T17:34:03.839Z,12.93
2018-11-03T17:36:38.386Z,11.97
2018-11-03T17:39:13.294Z,12.20
2018-11-03T17:41:48.028Z,13.10
2018-11-03T17:44:22.657Z,12.80
2018-11-03T17:46:57.192Z,12.73
2018-11-03T17:49:33.291Z,13.33
2018-11-03T17:52:07.843Z,12.50
2018-11-03T17:54:42.493Z,13.27
2018-11-03T17:57:17.106Z,12.90
2018-11-03T17:59:51.677Z,13.00
2018-11-03T18:02:26.310Z,13.33
2018-11-03T18:05:00.969Z,13.07
2018-11-03T18:07:35.514Z,13.20
2018-11-03T18:10:11.363Z,12.77
2018-11-03T18:12:46.018Z,13.43
2018-11-03T18:15:22.009Z,13.90
2018-11-03T18:17:59.320Z,12.70
2018-11-03T18:20:34.465Z,13.50
2018-11-03T18:23:11.326Z,13.43
2018-11-03T18:25:46.029Z,13.33
2018-11-03T18:28:20.591Z,13.70
2018-11-03T18:30:57.275Z,14.13
2018-11-03T18:33:32.272Z,13.33
2018-11-03T18:36:06.894Z,14.07
2018-11-03T18:38:42.495Z,13.67
2018-11-03T18:41:16.940Z,13.50
2018-11-03T18:43:51.634Z,14.10
2018-11-03T18:46:26.222Z,13.10
2018-11-03T18:49:00.680Z,13.27
2018-11-03T18:51:35.738Z,12.00
2018-11-03T18:54:10.617Z,13.23
2018-11-03T18:56:45.066Z,12.77
2018-11-03T18:59:19.794Z,13.07
2018-11-03T19:01:54.257Z,12.33
2018-11-03T19:04:28.971Z,13.13
2018-11-03T19:07:06.950Z,13.03
2018-11-03T19:09:42.449Z,13.80
2018-11-03T19:12:17.221Z,12.87
2018-11-03T19:14:51.903Z,13.13
2018-11-03T19:17:27.215Z,13.13
2018-11-03T19:20:02.062Z,13.60
2018-11-03T19:22:37.135Z,13.87
2018-11-03T19:25:13.008Z,14.33
2018-11-03T19:27:47.790Z,13.80
2018-11-03T19:30:22.579Z,13.97
2018-11-03T19:32:59.273Z,13.80
2018-11-03T19:35:35.560Z,13.60
2018-11-03T19:38:11.621Z,13.10
2018-11-03T19:40:46.961Z,13.63
2018-11-03T19:43:22.122Z,13.27
2018-11-03T19:45:57.098Z,13.40
2018-11-03T19:48:34.251Z,13.73
2018-11-03T19:51:08.953Z,13.27
2018-11-03T19:53:43.997Z,13.73
2018-11-03T19:56:19.026Z,14.03
2018-11-03T19:58:54.221Z,13.30
2018-11-03T20:01:30.158Z,13.40
2018-11-03T20:04:06.503Z,13.50
2018-11-03T20:06:44.728Z,13.03
2018-11-03T20:09:19.867Z,13.70
2018-11-03T20:11:54.619Z,14.07
2018-11-03T20:14:29.935Z,14.03
2018-11-03T20:17:08.295Z,13.10
2018-11-03T20:19:43.161Z,13.00
2018-11-03T20:22:18.947Z,13.07
2018-11-03T20:24:53.839Z,13.83
2018-11-03T20:27:28.599Z,12.83
2018-11-03T20:30:05.766Z,13.00
2018-11-03T20:32:40.675Z,14.43
2018-11-03T20:35:15.846Z,13.43
2018-11-03T20:37:50.853Z,13.57
2018-11-03T20:40:25.671Z,13.37
2018-11-03T20:43:01.143Z,14.73
2018-11-03T20:45:38.063Z,13.77
2018-11-03T20:48:13.749Z,14.30
2018-11-03T20:51:14.347Z,13.97
2018-11-03T20:53:52.917Z,13.50
2018-11-03T21:01:01.529Z,13.33
2018-11-03T21:03:36.511Z,14.77
2018-11-03T21:06:11.517Z,15.33
2018-11-03T21:08:46.628Z,15.13
2018-11-03T21:11:21.460Z,15.50
2018-11-03T21:13:57.376Z,15.53
2018-11-03T21:16:32.547Z,15.70
2018-11-03T21:19:07.916Z,15.00
2018-11-03T21:21:43.243Z,15.73
2018-11-03T21:24:19.386Z,15.60
2018-11-03T21:27:02.126Z,17.20
2018-11-03T21:29:37.328Z,16.73
2018-11-03T21:32:12.439Z,15.50
2018-11-03T21:34:47.187Z,15.37
2018-11-03T21:37:22.050Z,15.27
2018-11-03T21:39:56.708Z,16.43
2018-11-03T21:42:31.639Z,16.70
2018-11-03T21:45:07.182Z,14.97
2018-11-03T21:47:42.077Z,15.77
2018-11-03T21:50:16.665Z,15.87
2018-11-03T21:52:51.790Z,16.97
2018-11-03T21:55:26.887Z,15.73
2018-11-03T21:58:01.865Z,16.03
2018-11-03T22:00:37.804Z,16.80
2018-11-03T22:03:13.879Z,16.93
2018-11-03T22:05:51.128Z,17.27
2018-11-03T22:08:26.225Z,15.93
2018-11-03T22:11:08.644Z,16.77
2018-11-03T22:13:43.774Z,16.53
2018-11-03T22:16:24.994Z,15.73
2018-11-03T22:18:59.958Z,16.10
2018-11-03T22:21:35.715Z,16.33
2018-11-03T22:24:16.463Z,15.40
2018-11-03T22:26:55.693Z,15.37
2018-11-03T22:29:31.291Z,16.23
2018-11-03T22:32:08.090Z,14.60
2018-11-03T22:34:42.858Z,16.00
2018-11-03T22:37:17.614Z,17.27
2018-11-03T22:39:53.553Z,18.43
2018-11-03T22:42:28.112Z,16.97
2018-11-03T22:45:03.201Z,17.33
2018-11-03T22:47:38.330Z,16.57
2018-11-03T22:50:13.474Z,17.70
2018-11-03T22:52:48.692Z,18.27
2018-11-03T22:55:23.593Z,17.10
2018-11-03T22:57:58.477Z,16.93
2018-11-03T23:00:36.573Z,16.40
2018-11-03T23:03:12.299Z,15.80
2018-11-03T23:05:47.690Z,17.87
2018-11-03T23:08:23.968Z,18.27
2018-11-03T23:10:58.820Z,17.80
2018-11-03T23:13:33.968Z,18.73
2018-11-03T23:16:09.590Z,18.23
2018-11-03T23:18:45.665Z,19.10
2018-11-03T23:21:20.659Z,20.90
2018-11-03T23:23:56.660Z,23.80
2018-11-03T23:26:32.315Z,21.03
2018-11-03T23:29:08.445Z,19.53
2018-11-03T23:31:43.402Z,18.67
2018-11-03T23:34:18.426Z,21.60
2018-11-03T23:36:53.284Z,17.77
2018-11-03T23:39:28.345Z,18.50
2018-11-03T23:42:04.983Z,18.43
2018-11-03T23:44:42.372Z,17.73
2018-11-03T23:47:18.480Z,18.07
2018-11-03T23:49:53.272Z,18.10
2018-11-03T23:52:36.239Z,18.47
2018-11-03T23:55:11.349Z,18.93
2018-11-03T23:57:46.134Z,18.97
